createdAt,value
2018-05-08T00:00:39.140Z,2.70
2018-05-08T00:04:11.629Z,2.63
2018-05-08T00:07:44.107Z,2.70
2018-05-08T00:11:17.364Z,2.23
2018-05-08T00:14:49.840Z,2.57
2018-05-08T00:18:22.311Z,2.50
2018-05-08T00:21:54.798Z,2.87
2018-05-08T00:25:27.291Z,2.60
2018-05-08T00:28:59.782Z,2.67
2018-05-08T00:32:32.244Z,3.10
2018-05-08T00:40:29.225Z,2.90
2018-05-08T00:44:01.826Z,2.60
2018-05-08T00:47:35.177Z,2.27
2018-05-08T00:51:07.770Z,2.87
2018-05-08T00:54:52.120Z,2.87
2018-05-08T00:58:24.673Z,2.60
2018-05-08T01:01:57.226Z,2.50
2018-05-08T01:05:29.784Z,2.60
2018-05-08T01:09:02.374Z,2.33
2018-05-08T01:12:35.014Z,2.60
2018-05-08T01:16:07.573Z,3.27
2018-05-08T01:19:40.127Z,2.33
2018-05-08T01:23:13.445Z,2.73
2018-05-08T01:26:46.050Z,3.07
2018-05-08T01:30:19.348Z,2.70
2018-05-08T01:33:51.912Z,2.43
2018-05-08T01:37:24.524Z,2.80
2018-05-08T01:40:57.112Z,3.20
2018-05-08T01:44:29.681Z,2.90
2018-05-08T01:48:02.242Z,3.03
2018-05-08T01:51:35.574Z,2.90
2018-05-08T01:55:08.136Z,3.17
2018-05-08T01:58:40.704Z,2.50
2018-05-08T02:02:14.031Z,2.40
2018-05-08T02:05:46.578Z,2.20
2018-05-08T02:09:19.149Z,3.57
2018-05-08T02:12:51.729Z,2.60
2018-05-08T02:16:24.281Z,3.20
2018-05-08T02:19:56.837Z,2.97
2018-05-08T02:23:30.164Z,3.53
2018-05-08T02:30:59.198Z,2.53
2018-05-08T02:34:31.765Z,2.50
2018-05-08T02:38:04.332Z,2.80
2018-05-08T02:41:37.656Z,2.80
2018-05-08T02:45:10.215Z,3.03
2018-05-08T02:48:42.782Z,3.00
2018-05-08T02:52:15.343Z,2.80
2018-05-08T02:55:47.898Z,3.57
2018-05-08T02:59:20.465Z,3.03
2018-05-08T03:02:53.032Z,3.03
2018-05-08T03:06:25.589Z,2.37
2018-05-08T03:09:58.145Z,3.63
2018-05-08T03:13:30.713Z,2.87
2018-05-08T03:17:03.296Z,2.33
2018-05-08T03:20:35.859Z,3.13
2018-05-08T03:24:08.415Z,2.73
2018-05-08T03:27:40.988Z,2.90
2018-05-08T03:31:13.560Z,2.67
2018-05-08T03:34:46.128Z,3.30
2018-05-08T03:38:18.683Z,3.30
2018-05-08T03:41:51.258Z,3.00
2018-05-08T03:45:24.621Z,3.57
2018-05-08T03:48:57.184Z,3.10
2018-05-08T03:52:29.732Z,4.43
2018-05-08T03:56:02.291Z,3.10
2018-05-08T03:59:34.844Z,3.97
2018-05-08T04:03:19.966Z,3.50
2018-05-08T04:07:05.061Z,3.50
2018-05-08T04:10:37.621Z,3.40
2018-05-08T04:14:10.945Z,3.60
2018-05-08T04:17:43.522Z,3.77
2018-05-08T04:21:16.090Z,3.67
2018-05-08T04:24:49.446Z,3.27
2018-05-08T04:28:22.004Z,4.40
2018-05-08T04:31:54.581Z,3.73
2018-05-08T04:35:27.140Z,3.80
2018-05-08T04:39:00.544Z,13.40
2018-05-08T04:42:33.868Z,4.10
2018-05-08T04:46:06.436Z,3.80
2018-05-08T04:49:39.757Z,4.47
2018-05-08T04:53:12.341Z,3.37
2018-05-08T04:56:44.896Z,3.70
2018-05-08T05:00:17.468Z,4.03
2018-05-08T05:03:50.028Z,3.03
2018-05-08T05:07:22.591Z,3.97
2018-05-08T05:10:55.162Z,3.90
2018-05-08T05:14:27.732Z,4.20
2018-05-08T05:18:01.080Z,3.47
2018-05-08T05:21:33.658Z,3.73
2018-05-08T05:25:06.216Z,3.40
2018-05-08T05:28:38.789Z,4.23
2018-05-08T05:32:11.361Z,3.63
2018-05-08T05:35:44.696Z,4.13
2018-05-08T05:39:17.257Z,3.63
2018-05-08T05:42:49.839Z,3.70
2018-05-08T05:46:23.173Z,3.80
2018-05-08T05:49:55.737Z,4.10
2018-05-08T05:53:28.293Z,3.67
2018-05-08T05:57:01.632Z,3.97
2018-05-08T06:00:34.187Z,3.37
2018-05-08T06:04:07.521Z,3.57
2018-05-08T06:07:40.075Z,3.43
2018-05-08T06:11:13.421Z,3.53
2018-05-08T06:14:45.981Z,3.80
2018-05-08T06:18:18.545Z,3.53
2018-05-08T06:21:51.903Z,3.63
2018-05-08T06:25:24.467Z,4.07
2018-05-08T06:28:57.036Z,3.60
2018-05-08T06:32:29.607Z,3.10
2018-05-08T06:36:02.172Z,3.30
2018-05-08T06:39:35.607Z,5.10
2018-05-08T06:43:08.116Z,4.07
2018-05-08T06:46:40.739Z,3.00
2018-05-08T06:50:13.257Z,3.40
2018-05-08T06:53:45.828Z,4.30
2018-05-08T06:57:18.405Z,3.70
2018-05-08T07:00:50.971Z,3.70
2018-05-08T07:04:23.527Z,3.50
2018-05-08T07:07:56.101Z,3.07
2018-05-08T07:11:28.659Z,3.33
2018-05-08T07:15:01.224Z,3.30
2018-05-08T07:18:34.564Z,4.20
2018-05-08T07:22:07.119Z,3.50
2018-05-08T07:25:39.696Z,3.40
2018-05-08T07:29:12.278Z,3.27
2018-05-08T07:32:45.617Z,3.30
2018-05-08T07:36:18.187Z,3.30
2018-05-08T07:39:50.797Z,3.63
2018-05-08T07:43:23.345Z,3.63
2018-05-08T07:46:55.915Z,3.10
2018-05-08T07:50:29.236Z,3.00
2018-05-08T07:54:01.838Z,2.87
2018-05-08T07:57:34.449Z,3.80
2018-05-08T08:01:07.087Z,3.90
2018-05-08T08:04:39.860Z,2.67
2018-05-08T08:08:13.200Z,3.67
2018-05-08T08:11:45.762Z,3.37
2018-05-08T08:15:18.333Z,3.20
2018-05-08T08:18:51.652Z,3.10
2018-05-08T08:22:24.211Z,3.70
2018-05-08T08:25:57.541Z,3.37
2018-05-08T08:29:30.120Z,3.43
2018-05-08T08:33:02.676Z,4.27
2018-05-08T08:36:35.243Z,3.30
2018-05-08T08:40:07.796Z,3.37
2018-05-08T08:43:40.364Z,3.37
2018-05-08T08:47:12.924Z,2.63
2018-05-08T08:50:45.498Z,2.77
2018-05-08T08:54:18.817Z,3.17
2018-05-08T08:57:51.380Z,4.13
2018-05-08T09:01:24.701Z,3.07
2018-05-08T09:04:57.264Z,3.00
2018-05-08T09:08:30.585Z,3.13
2018-05-08T09:12:03.164Z,3.40
2018-05-08T09:15:35.724Z,3.63
2018-05-08T09:19:08.284Z,2.80
2018-05-08T09:22:40.859Z,3.10
2018-05-08T09:26:13.425Z,2.93
2018-05-08T09:29:45.988Z,3.23
2018-05-08T09:33:18.548Z,2.97
2018-05-08T09:36:51.116Z,4.97
2018-05-08T09:40:23.680Z,3.33
2018-05-08T09:43:56.243Z,3.03
2018-05-08T09:47:28.812Z,3.30
2018-05-08T09:51:01.372Z,3.37
2018-05-08T09:54:33.940Z,3.50
2018-05-08T09:58:06.499Z,3.60
2018-05-08T10:01:39.066Z,3.60
2018-05-08T10:05:11.629Z,4.37
2018-05-08T10:08:44.192Z,3.63
2018-05-08T10:12:17.529Z,4.40
2018-05-08T10:15:50.076Z,3.73
2018-05-08T10:19:22.643Z,3.97
2018-05-08T10:22:55.193Z,3.70
2018-05-08T10:26:27.769Z,3.77
2018-05-08T10:30:02.007Z,3.53
2018-05-08T10:33:34.576Z,3.80
2018-05-08T10:37:07.132Z,3.83
2018-05-08T10:40:39.715Z,4.47
2018-05-08T10:44:13.045Z,3.63
2018-05-08T10:47:45.611Z,4.57
2018-05-08T10:51:18.175Z,3.90
2018-05-08T10:54:51.511Z,3.90
2018-05-08T10:58:24.077Z,4.30
2018-05-08T11:01:56.658Z,4.30
2018-05-08T11:05:29.228Z,4.33
2018-05-08T11:09:02.597Z,3.30
2018-05-08T11:12:35.178Z,3.80
2018-05-08T11:16:07.736Z,4.10
2018-05-08T11:19:40.303Z,3.57
2018-05-08T11:23:12.885Z,3.50
2018-05-08T11:26:45.526Z,3.70
2018-05-08T11:30:18.098Z,3.40
2018-05-08T11:33:50.680Z,3.60
2018-05-08T11:37:23.288Z,3.07
2018-05-08T11:40:55.852Z,3.53
2018-05-08T11:44:28.536Z,3.23
2018-05-08T11:48:01.873Z,3.50
2018-05-08T11:51:35.204Z,4.10
2018-05-08T11:55:07.794Z,3.87
2018-05-08T11:58:40.376Z,4.10
2018-05-08T12:02:12.949Z,3.10
2018-05-08T12:05:45.517Z,3.47
2018-05-08T12:09:18.854Z,4.40
2018-05-08T12:12:51.421Z,3.40
2018-05-08T12:16:23.992Z,4.40
2018-05-08T12:19:57.321Z,4.20
2018-05-08T12:23:29.881Z,3.53
2018-05-08T12:27:02.472Z,3.47
2018-05-08T12:30:35.097Z,3.67
2018-05-08T12:34:07.629Z,3.60
2018-05-08T12:37:40.217Z,4.00
2018-05-08T12:41:12.776Z,3.87
2018-05-08T12:44:45.363Z,3.47
2018-05-08T12:48:17.933Z,4.00
2018-05-08T12:51:50.568Z,4.20
2018-05-08T12:55:23.144Z,3.83
2018-05-08T12:58:55.753Z,4.03
2018-05-08T13:02:28.324Z,4.10
2018-05-08T13:06:00.894Z,3.73
2018-05-08T13:09:33.458Z,3.73
2018-05-08T13:13:06.789Z,4.00
2018-05-08T13:16:39.384Z,3.37
2018-05-08T13:20:11.949Z,3.70
2018-05-08T13:23:44.515Z,3.93
2018-05-08T13:27:17.117Z,3.80
2018-05-08T13:30:49.673Z,4.20
2018-05-08T13:34:22.244Z,3.90
2018-05-08T13:37:54.821Z,4.13
2018-05-08T13:41:27.373Z,3.90
2018-05-08T13:44:59.940Z,3.70
2018-05-08T13:48:32.493Z,2.93
2018-05-08T13:52:05.066Z,3.33
2018-05-08T13:55:37.650Z,3.40
2018-05-08T13:59:10.217Z,3.90
2018-05-08T14:02:42.788Z,3.40
2018-05-08T14:06:15.415Z,3.70
2018-05-08T14:09:47.953Z,3.23
2018-05-08T14:13:20.573Z,3.40
2018-05-08T14:16:53.133Z,3.27
2018-05-08T14:20:25.858Z,3.67
2018-05-08T14:23:58.305Z,3.37
2018-05-08T14:27:30.865Z,3.80
2018-05-08T14:31:03.437Z,3.10
2018-05-08T14:34:36.018Z,3.03
2018-05-08T14:38:08.586Z,3.50
2018-05-08T14:41:41.245Z,3.00
2018-05-08T14:45:13.842Z,3.83
2018-05-08T14:48:46.476Z,3.10
2018-05-08T14:52:19.130Z,3.73
2018-05-08T14:55:51.692Z,3.53
2018-05-08T14:59:24.278Z,3.20
2018-05-08T15:02:56.993Z,3.40
2018-05-08T15:06:29.554Z,4.07
2018-05-08T15:10:02.900Z,3.43
2018-05-08T15:13:35.490Z,4.10
2018-05-08T15:17:08.052Z,3.60
2018-05-08T15:20:40.620Z,3.97
2018-05-08T15:24:13.199Z,5.40
2018-05-08T15:27:46.547Z,3.30
2018-05-08T15:31:19.124Z,4.00
2018-05-08T15:34:51.696Z,3.47
2018-05-08T15:38:24.276Z,4.07
2018-05-08T15:41:56.847Z,4.63
2018-05-08T15:45:29.436Z,4.50
2018-05-08T15:49:02.020Z,4.13
2018-05-08T15:52:34.596Z,4.40
2018-05-08T15:56:07.933Z,4.73
2018-05-08T15:59:40.629Z,4.10
2018-05-08T16:03:13.205Z,4.07
2018-05-08T16:06:45.772Z,4.23
2018-05-08T16:10:19.127Z,3.93
2018-05-08T16:13:51.745Z,4.17
2018-05-08T16:17:24.314Z,3.70
2018-05-08T16:20:57.708Z,4.17
2018-05-08T16:24:30.240Z,3.77
2018-05-08T16:28:02.826Z,3.80
2018-05-08T16:31:35.399Z,3.43
2018-05-08T16:35:07.984Z,4.27
2018-05-08T16:38:40.558Z,3.63
2018-05-08T16:42:13.117Z,3.73
2018-05-08T16:45:46.457Z,3.37
2018-05-08T16:49:19.033Z,4.43
2018-05-08T16:52:51.597Z,4.30
2018-05-08T16:56:24.164Z,4.27
2018-05-08T16:59:56.741Z,3.90
2018-05-08T17:03:29.314Z,4.40
2018-05-08T17:07:01.909Z,3.30
2018-05-08T17:10:34.589Z,4.73
2018-05-08T17:14:07.110Z,4.00
2018-05-08T17:17:39.708Z,4.20
2018-05-08T17:21:12.298Z,4.00
2018-05-08T17:24:44.869Z,4.30
2018-05-08T17:28:17.430Z,4.00
2018-05-08T17:31:50.801Z,4.43
2018-05-08T17:35:23.374Z,3.90
2018-05-08T17:38:55.976Z,3.90
2018-05-08T17:42:28.610Z,4.03
2018-05-08T17:46:01.213Z,4.03
2018-05-08T17:49:40.663Z,4.67
2018-05-08T17:53:13.324Z,4.17
2018-05-08T17:56:46.990Z,3.93
2018-05-08T18:00:19.550Z,3.70
2018-05-08T18:03:52.144Z,5.30
2018-05-08T18:07:24.712Z,4.13
2018-05-08T18:10:57.276Z,4.73
2018-05-08T18:14:29.830Z,4.60
2018-05-08T18:18:02.393Z,4.63
2018-05-08T18:21:35.763Z,4.80
2018-05-08T18:25:08.429Z,5.27
2018-05-08T18:28:40.996Z,4.80
2018-05-08T18:32:14.341Z,4.90
2018-05-08T18:35:46.918Z,4.57
2018-05-08T18:39:19.477Z,4.70
2018-05-08T18:42:52.048Z,5.20
2018-05-08T18:46:24.602Z,4.87
2018-05-08T18:49:57.229Z,4.53
2018-05-08T18:53:30.563Z,4.87
2018-05-08T18:57:03.125Z,4.70
2018-05-08T19:00:41.221Z,4.87
2018-05-08T19:04:14.552Z,5.30
2018-05-08T19:07:47.145Z,5.83
2018-05-08T19:11:25.303Z,4.90
2018-05-08T19:15:03.532Z,5.00
2018-05-08T19:18:42.408Z,4.97
2018-05-08T19:22:14.964Z,5.17
2018-05-08T19:25:48.293Z,5.17
2018-05-08T19:29:26.398Z,3.73
2018-05-08T19:32:58.977Z,4.57
2018-05-08T19:36:37.093Z,4.77
2018-05-08T19:40:09.683Z,4.87
2018-05-08T19:43:42.260Z,5.40
2018-05-08T19:47:14.815Z,5.87
2018-05-08T19:50:47.384Z,5.40
2018-05-08T19:54:19.944Z,5.80
2018-05-08T19:57:52.592Z,5.50
2018-05-08T20:01:25.092Z,5.60
2018-05-08T20:04:57.764Z,5.67
2018-05-08T20:08:30.325Z,5.77
2018-05-08T20:12:03.665Z,5.97
2018-05-08T20:15:36.241Z,5.50
2018-05-08T20:19:08.793Z,5.70
2018-05-08T20:22:42.125Z,5.27
2018-05-08T20:26:14.677Z,6.23
2018-05-08T20:29:48.062Z,5.90
2018-05-08T20:33:21.404Z,5.83
2018-05-08T20:36:53.963Z,5.60
2018-05-08T20:40:27.285Z,5.67
2018-05-08T20:43:59.853Z,5.97
2018-05-08T20:47:33.193Z,5.40
2018-05-08T20:51:06.753Z,5.53
2018-05-08T20:54:39.341Z,5.40
2018-05-08T20:58:12.727Z,5.50
2018-05-08T21:01:45.308Z,5.37
2018-05-08T21:05:17.872Z,5.90
2018-05-08T21:08:50.439Z,5.30
2018-05-08T21:12:22.996Z,5.70
2018-05-08T21:15:55.550Z,5.43
2018-05-08T21:19:28.114Z,6.23
2018-05-08T21:23:00.688Z,4.63
2018-05-08T21:26:33.285Z,5.53
2018-05-08T21:30:11.526Z,5.83
2018-05-08T21:33:44.857Z,6.27
2018-05-08T21:37:17.411Z,5.70
2018-05-08T21:40:49.987Z,6.00
2018-05-08T21:44:22.553Z,6.27
2018-05-08T21:47:55.107Z,6.00
2018-05-08T21:51:27.668Z,5.67
2018-05-08T21:55:00.233Z,5.57
2018-05-08T21:58:33.564Z,6.67
2018-05-08T22:02:06.128Z,7.10
2018-05-08T22:05:39.453Z,5.97
2018-05-08T22:09:12.014Z,6.43
2018-05-08T22:12:45.337Z,5.70
2018-05-08T22:16:17.928Z,6.90
2018-05-08T22:19:50.480Z,5.67
2018-05-08T22:23:23.828Z,6.90
2018-05-08T22:26:56.385Z,5.87
2018-05-08T22:30:28.949Z,5.70
2018-05-08T22:34:02.278Z,6.90
2018-05-08T22:37:34.856Z,6.10
2018-05-08T22:41:07.428Z,6.47
2018-05-08T22:44:40.740Z,6.13
2018-05-08T22:48:13.306Z,5.67
2018-05-08T22:51:46.619Z,6.13
2018-05-08T22:55:19.213Z,6.50
2018-05-08T22:58:51.772Z,6.00
2018-05-08T23:02:25.109Z,5.93
2018-05-08T23:05:57.673Z,6.10
2018-05-08T23:09:30.256Z,7.43
2018-05-08T23:13:02.808Z,6.20
2018-05-08T23:16:35.365Z,5.97
2018-05-08T23:20:07.928Z,5.50
2018-05-08T23:23:40.520Z,5.77
2018-05-08T23:27:13.108Z,6.50
2018-05-08T23:30:45.662Z,5.63
2018-05-08T23:34:18.238Z,5.87
2018-05-08T23:37:50.800Z,5.77
2018-05-08T23:41:23.365Z,5.53
2018-05-08T23:44:55.919Z,5.30
2018-05-08T23:48:28.478Z,6.50
2018-05-08T23:52:01.045Z,6.17
2018-05-08T23:55:34.357Z,6.67
2018-05-08T23:59:07.012Z,6.03
